sensor_id;sensor_type;location;lat;lon;timestamp;temperature;humidity
262;DHT22;114;48.260;10.988;2023-04-01T00:00:23;7.20;41.10
262;DHT22;114;48.260;10.988;2023-04-01T00:02:49;7.20;41.80
262;DHT22;114;48.260;10.988;2023-04-01T00:05:14;7.10;42.10
262;DHT22;114;48.260;10.988;2023-04-01T00:07:42;7.10;41.80
262;DHT22;114;48.260;10.988;2023-04-01T00:10:10;7.10;42.10
262;DHT22;114;48.260;10.988;2023-04-01T00:12:37;7.10;42.70
262;DHT22;114;48.260;10.988;2023-04-01T00:15:08;7.10;42.00
262;DHT22;114;48.260;10.988;2023-04-01T00:17:35;7.10;42.90
262;DHT22;114;48.260;10.988;2023-04-01T00:20:01;7.10;41.40
262;DHT22;114;48.260;10.988;2023-04-01T00:22:28;7.20;40.00
262;DHT22;114;48.260;10.988;2023-04-01T00:24:54;7.20;40.00
262;DHT22;114;48.260;10.988;2023-04-01T00:27:20;7.20;40.10
262;DHT22;114;48.260;10.988;2023-04-01T00:29:46;7.10;39.20
262;DHT22;114;48.260;10.988;2023-04-01T00:32:14;7.20;37.70
262;DHT22;114;48.260;10.988;2023-04-01T00:34:40;7.20;35.30
262;DHT22;114;48.260;10.988;2023-04-01T00:37:06;7.20;35.20
262;DHT22;114;48.260;10.988;2023-04-01T00:39:34;7.20;35.50
262;DHT22;114;48.260;10.988;2023-04-01T00:42:00;7.20;36.90
262;DHT22;114;48.260;10.988;2023-04-01T00:44:32;7.20;37.40
262;DHT22;114;48.260;10.988;2023-04-01T00:46:59;7.20;37.90
262;DHT22;114;48.260;10.988;2023-04-01T00:49:32;7.20;36.70
262;DHT22;114;48.260;10.988;2023-04-01T00:52:00;7.30;35.80
262;DHT22;114;48.260;10.988;2023-04-01T00:54:27;7.30;35.40
262;DHT22;114;48.260;10.988;2023-04-01T00:59:48;7.40;33.70
262;DHT22;114;48.260;10.988;2023-04-01T01:02:16;7.40;32.30
262;DHT22;114;48.260;10.988;2023-04-01T01:04:44;7.40;32.90
262;DHT22;114;48.260;10.988;2023-04-01T01:10:18;7.30;34.40
262;DHT22;114;48.260;10.988;2023-04-01T01:15:24;7.40;32.90
262;DHT22;114;48.260;10.988;2023-04-01T01:26:49;7.40;32.40
262;DHT22;114;48.260;10.988;2023-04-01T01:32:07;7.30;32.50
262;DHT22;114;48.260;10.988;2023-04-01T01:35:26;7.30;33.50
262;DHT22;114;48.260;10.988;2023-04-01T01:38:00;7.20;34.90
262;DHT22;114;48.260;10.988;2023-04-01T01:40:29;7.20;34.90
262;DHT22;114;48.260;10.988;2023-04-01T01:43:00;7.20;32.80
262;DHT22;114;48.260;10.988;2023-04-01T01:45:29;7.30;31.90
262;DHT22;114;48.260;10.988;2023-04-01T01:47:56;7.30;32.10
262;DHT22;114;48.260;10.988;2023-04-01T01:50:24;7.20;31.60
262;DHT22;114;48.260;10.988;2023-04-01T01:53:04;7.20;33.60
262;DHT22;114;48.260;10.988;2023-04-01T01:55:42;7.20;33.50
262;DHT22;114;48.260;10.988;2023-04-01T02:00:38;7.10;35.70
262;DHT22;114;48.260;10.988;2023-04-01T02:03:04;7.10;35.20
262;DHT22;114;48.260;10.988;2023-04-01T02:05:31;7.10;35.10
262;DHT22;114;48.260;10.988;2023-04-01T02:10:35;7.00;35.90
262;DHT22;114;48.260;10.988;2023-04-01T02:13:07;7.00;36.30
262;DHT22;114;48.260;10.988;2023-04-01T02:15:37;7.00;36.20
262;DHT22;114;48.260;10.988;2023-04-01T02:18:06;7.00;36.70
262;DHT22;114;48.260;10.988;2023-04-01T02:20:32;7.00;36.10
262;DHT22;114;48.260;10.988;2023-04-01T02:22:59;7.00;35.00
262;DHT22;114;48.260;10.988;2023-04-01T02:25:27;7.00;36.90
262;DHT22;114;48.260;10.988;2023-04-01T02:27:55;7.00;36.40
262;DHT22;114;48.260;10.988;2023-04-01T02:30:23;6.90;37.80
262;DHT22;114;48.260;10.988;2023-04-01T02:32:49;6.90;38.30
262;DHT22;114;48.260;10.988;2023-04-01T02:35:16;6.80;39.70
262;DHT22;114;48.260;10.988;2023-04-01T02:37:44;6.80;40.60
262;DHT22;114;48.260;10.988;2023-04-01T02:40:13;6.70;42.10
262;DHT22;114;48.260;10.988;2023-04-01T02:42:39;6.70;42.30
262;DHT22;114;48.260;10.988;2023-04-01T02:45:06;6.60;42.10
262;DHT22;114;48.260;10.988;2023-04-01T02:47:32;6.70;41.50
262;DHT22;114;48.260;10.988;2023-04-01T02:49:58;6.70;40.10
262;DHT22;114;48.260;10.988;2023-04-01T02:52:30;6.70;39.10
262;DHT22;114;48.260;10.988;2023-04-01T02:54:56;6.70;40.70
262;DHT22;114;48.260;10.988;2023-04-01T02:57:23;6.60;40.20
262;DHT22;114;48.260;10.988;2023-04-01T02:59:49;6.60;40.40
262;DHT22;114;48.260;10.988;2023-04-01T03:02:16;6.60;38.70
262;DHT22;114;48.260;10.988;2023-04-01T03:04:42;6.60;38.90
262;DHT22;114;48.260;10.988;2023-04-01T03:07:08;6.50;40.00
262;DHT22;114;48.260;10.988;2023-04-01T03:09:36;6.40;41.00
262;DHT22;114;48.260;10.988;2023-04-01T03:12:03;6.40;41.10
262;DHT22;114;48.260;10.988;2023-04-01T03:14:28;6.40;39.80
262;DHT22;114;48.260;10.988;2023-04-01T03:16:54;6.40;39.40
262;DHT22;114;48.260;10.988;2023-04-01T03:19:20;6.30;40.10
262;DHT22;114;48.260;10.988;2023-04-01T03:21:46;6.30;39.30
262;DHT22;114;48.260;10.988;2023-04-01T03:24:12;6.30;40.00
262;DHT22;114;48.260;10.988;2023-04-01T03:26:37;6.30;39.30
262;DHT22;114;48.260;10.988;2023-04-01T03:29:03;6.30;39.40
262;DHT22;114;48.260;10.988;2023-04-01T03:31:28;6.30;40.00
262;DHT22;114;48.260;10.988;2023-04-01T03:33:54;6.30;40.30
262;DHT22;114;48.260;10.988;2023-04-01T03:36:20;6.40;39.40
262;DHT22;114;48.260;10.988;2023-04-01T03:38:47;6.30;39.70
262;DHT22;114;48.260;10.988;2023-04-01T03:41:16;6.40;40.50
262;DHT22;114;48.260;10.988;2023-04-01T03:43:43;6.40;41.20
262;DHT22;114;48.260;10.988;2023-04-01T03:46:08;6.40;41.30
262;DHT22;114;48.260;10.988;2023-04-01T03:48:35;6.40;40.80
262;DHT22;114;48.260;10.988;2023-04-01T03:51:00;6.50;41.00
262;DHT22;114;48.260;10.988;2023-04-01T03:53:26;6.50;40.50
262;DHT22;114;48.260;10.988;2023-04-01T03:55:53;6.50;41.50
262;DHT22;114;48.260;10.988;2023-04-01T03:58:19;6.60;41.80
262;DHT22;114;48.260;10.988;2023-04-01T04:00:45;6.60;43.40
262;DHT22;114;48.260;10.988;2023-04-01T04:03:10;6.60;44.60
262;DHT22;114;48.260;10.988;2023-04-01T04:05:36;6.60;45.50
262;DHT22;114;48.260;10.988;2023-04-01T04:08:02;6.60;47.00
262;DHT22;114;48.260;10.988;2023-04-01T04:10:28;6.60;49.10
262;DHT22;114;48.260;10.988;2023-04-01T04:12:54;6.60;50.10
262;DHT22;114;48.260;10.988;2023-04-01T04:15:21;6.60;51.80
262;DHT22;114;48.260;10.988;2023-04-01T04:17:47;6.60;52.00
262;DHT22;114;48.260;10.988;2023-04-01T04:20:13;6.60;52.40
262;DHT22;114;48.260;10.988;2023-04-01T04:22:38;6.70;49.90
262;DHT22;114;48.260;10.988;2023-04-01T04:25:04;6.60;49.90
262;DHT22;114;48.260;10.988;2023-04-01T04:27:31;6.70;52.50
262;DHT22;114;48.260;10.988;2023-04-01T04:29:56;6.70;50.10
262;DHT22;114;48.260;10.988;2023-04-01T04:32:22;6.70;52.00
262;DHT22;114;48.260;10.988;2023-04-01T04:34:48;6.70;50.20
262;DHT22;114;48.260;10.988;2023-04-01T04:37:13;6.70;49.20
262;DHT22;114;48.260;10.988;2023-04-01T04:39:39;6.80;46.90
262;DHT22;114;48.260;10.988;2023-04-01T04:42:06;6.80;45.20
262;DHT22;114;48.260;10.988;2023-04-01T04:44:31;6.80;46.00
262;DHT22;114;48.260;10.988;2023-04-01T04:46:57;6.80;44.60
262;DHT22;114;48.260;10.988;2023-04-01T04:49:23;6.80;44.40
262;DHT22;114;48.260;10.988;2023-04-01T04:51:48;6.80;44.90
262;DHT22;114;48.260;10.988;2023-04-01T04:54:15;6.90;44.20
262;DHT22;114;48.260;10.988;2023-04-01T04:56:40;6.90;44.90
262;DHT22;114;48.260;10.988;2023-04-01T04:59:06;6.90;40.90
262;DHT22;114;48.260;10.988;2023-04-01T05:01:32;7.00;39.90
262;DHT22;114;48.260;10.988;2023-04-01T05:03:59;7.00;36.70
262;DHT22;114;48.260;10.988;2023-04-01T05:06:25;7.00;37.40
262;DHT22;114;48.260;10.988;2023-04-01T05:08:51;7.00;36.90
262;DHT22;114;48.260;10.988;2023-04-01T05:11:19;7.00;36.90
262;DHT22;114;48.260;10.988;2023-04-01T05:13:45;7.00;35.50
262;DHT22;114;48.260;10.988;2023-04-01T05:16:15;7.10;35.00
262;DHT22;114;48.260;10.988;2023-04-01T05:18:41;7.10;34.70
262;DHT22;114;48.260;10.988;2023-04-01T05:21:08;7.10;35.10
262;DHT22;114;48.260;10.988;2023-04-01T05:23:36;7.00;34.60
262;DHT22;114;48.260;10.988;2023-04-01T05:26:07;7.00;34.60
262;DHT22;114;48.260;10.988;2023-04-01T05:28:33;7.00;33.50
262;DHT22;114;48.260;10.988;2023-04-01T05:31:00;7.00;32.80
262;DHT22;114;48.260;10.988;2023-04-01T05:33:26;7.00;33.90
262;DHT22;114;48.260;10.988;2023-04-01T05:35:52;7.00;34.70
262;DHT22;114;48.260;10.988;2023-04-01T05:38:18;6.90;33.30
262;DHT22;114;48.260;10.988;2023-04-01T05:40:43;7.00;32.40
262;DHT22;114;48.260;10.988;2023-04-01T05:43:11;7.00;32.40
262;DHT22;114;48.260;10.988;2023-04-01T05:45:36;7.00;30.70
262;DHT22;114;48.260;10.988;2023-04-01T05:48:03;7.00;29.80
262;DHT22;114;48.260;10.988;2023-04-01T05:50:28;7.00;29.70
262;DHT22;114;48.260;10.988;2023-04-01T05:52:54;7.00;28.90
262;DHT22;114;48.260;10.988;2023-04-01T05:55:20;7.10;29.50
262;DHT22;114;48.260;10.988;2023-04-01T05:57:46;7.10;30.10
262;DHT22;114;48.260;10.988;2023-04-01T06:00:14;7.10;28.80
262;DHT22;114;48.260;10.988;2023-04-01T06:02:40;7.10;28.70
262;DHT22;114;48.260;10.988;2023-04-01T06:05:16;7.10;28.70
262;DHT22;114;48.260;10.988;2023-04-01T06:07:42;7.20;28.60
262;DHT22;114;48.260;10.988;2023-04-01T06:26:54;7.70;20.60
262;DHT22;114;48.260;10.988;2023-04-01T06:54:32;8.30;11.60
262;DHT22;114;48.260;10.988;2023-04-01T06:56:34;8.20;12.60
262;DHT22;114;48.260;10.988;2023-04-01T06:59:08;8.10;13.30
262;DHT22;114;48.260;10.988;2023-04-01T07:01:42;8.30;13.80
262;DHT22;114;48.260;10.988;2023-04-01T07:04:20;8.20;12.90
262;DHT22;114;48.260;10.988;2023-04-01T07:06:59;8.30;12.10
262;DHT22;114;48.260;10.988;2023-04-01T07:09:40;8.40;12.00
262;DHT22;114;48.260;10.988;2023-04-01T07:15:15;8.70;9.40
262;DHT22;114;48.260;10.988;2023-04-01T07:17:43;8.80;7.60
262;DHT22;114;48.260;10.988;2023-04-01T07:20:22;8.80;7.10
262;DHT22;114;48.260;10.988;2023-04-01T07:22:50;8.90;7.30
262;DHT22;114;48.260;10.988;2023-04-01T07:27:45;8.90;7.60
262;DHT22;114;48.260;10.988;2023-04-01T07:30:16;8.90;7.70
262;DHT22;114;48.260;10.988;2023-04-01T07:35:13;8.90;7.20
262;DHT22;114;48.260;10.988;2023-04-01T07:40:49;8.80;5.70
262;DHT22;114;48.260;10.988;2023-04-01T07:43:40;8.80;6.00
262;DHT22;114;48.260;10.988;2023-04-01T07:48:48;8.90;4.10
262;DHT22;114;48.260;10.988;2023-04-01T07:51:20;9.00;5.50
262;DHT22;114;48.260;10.988;2023-04-01T07:56:51;9.10;3.40
262;DHT22;114;48.260;10.988;2023-04-01T08:08:02;10.00;1.00
262;DHT22;114;48.260;10.988;2023-04-01T08:10:52;9.80;1.00
262;DHT22;114;48.260;10.988;2023-04-01T08:13:39;9.70;1.00
262;DHT22;114;48.260;10.988;2023-04-01T08:19:06;9.80;1.00
262;DHT22;114;48.260;10.988;2023-04-01T08:21:41;9.80;1.00
262;DHT22;114;48.260;10.988;2023-04-01T08:24:29;9.60;1.00
262;DHT22;114;48.260;10.988;2023-04-01T08:27:00;9.50;1.00
262;DHT22;114;48.260;10.988;2023-04-01T08:29:46;9.60;1.00
262;DHT22;114;48.260;10.988;2023-04-01T08:32:25;9.90;1.00
262;DHT22;114;48.260;10.988;2023-04-01T08:35:31;10.00;1.00
262;DHT22;114;48.260;10.988;2023-04-01T08:38:21;10.10;1.00
262;DHT22;114;48.260;10.988;2023-04-01T08:41:02;10.00;1.00
262;DHT22;114;48.260;10.988;2023-04-01T08:47:04;10.30;1.00
262;DHT22;114;48.260;10.988;2023-04-01T08:55:02;10.60;1.00
262;DHT22;114;48.260;10.988;2023-04-01T08:57:54;10.70;1.00
262;DHT22;114;48.260;10.988;2023-04-01T09:00:38;10.60;1.00
262;DHT22;114;48.260;10.988;2023-04-01T09:08:43;10.30;1.00
262;DHT22;114;48.260;10.988;2023-04-01T09:20:06;10.60;1.00
262;DHT22;114;48.260;10.988;2023-04-01T09:22:44;10.70;1.00
262;DHT22;114;48.260;10.988;2023-04-01T09:27:57;10.90;1.00
262;DHT22;114;48.260;10.988;2023-04-01T09:33:59;10.90;1.00
262;DHT22;114;48.260;10.988;2023-04-01T09:36:46;10.70;1.00
262;DHT22;114;48.260;10.988;2023-04-01T09:44:46;11.10;1.00
262;DHT22;114;48.260;10.988;2023-04-01T10:24:46;10.10;1.00
262;DHT22;114;48.260;10.988;2023-04-01T10:30:39;9.90;2.30
262;DHT22;114;48.260;10.988;2023-04-01T10:58:17;9.50;23.20
262;DHT22;114;48.260;10.988;2023-04-01T11:15:11;8.40;31.70
262;DHT22;114;48.260;10.988;2023-04-01T11:31:47;8.00;35.30
262;DHT22;114;48.260;10.988;2023-04-01T11:34:49;8.10;40.80
262;DHT22;114;48.260;10.988;2023-04-01T11:40:05;8.10;42.30
262;DHT22;114;48.260;10.988;2023-04-01T11:42:54;8.20;38.80
262;DHT22;114;48.260;10.988;2023-04-01T11:50:58;8.30;34.90
262;DHT22;114;48.260;10.988;2023-04-01T12:17:43;8.80;30.70
262;DHT22;114;48.260;10.988;2023-04-01T12:23:36;8.80;30.30
262;DHT22;114;48.260;10.988;2023-04-01T12:45:45;8.60;35.80
262;DHT22;114;48.260;10.988;2023-04-01T12:56:13;8.50;47.30
262;DHT22;114;48.260;10.988;2023-04-01T13:13:15;9.00;43.20
262;DHT22;114;48.260;10.988;2023-04-01T13:24:24;9.00;43.30
262;DHT22;114;48.260;10.988;2023-04-01T13:29:43;9.10;38.80
262;DHT22;114;48.260;10.988;2023-04-01T13:32:21;9.70;25.30
262;DHT22;114;48.260;10.988;2023-04-01T13:35:15;10.10;17.20
262;DHT22;114;48.260;10.988;2023-04-01T13:51:28;10.90;10.00
262;DHT22;114;48.260;10.988;2023-04-01T13:54:07;10.40;13.30
262;DHT22;114;48.260;10.988;2023-04-01T13:57:00;10.10;13.50
262;DHT22;114;48.260;10.988;2023-04-01T14:05:59;10.10;17.90
262;DHT22;114;48.260;10.988;2023-04-01T14:27:31;10.50;21.70
262;DHT22;114;48.260;10.988;2023-04-01T14:41:12;9.70;28.60
262;DHT22;114;48.260;10.988;2023-04-01T14:44:00;9.60;29.90
262;DHT22;114;48.260;10.988;2023-04-01T14:51:48;9.60;30.20
262;DHT22;114;48.260;10.988;2023-04-01T14:54:19;9.30;34.50
262;DHT22;114;48.260;10.988;2023-04-01T15:00:23;9.50;31.70
262;DHT22;114;48.260;10.988;2023-04-01T15:02:59;9.40;24.50
262;DHT22;114;48.260;10.988;2023-04-01T15:08:25;9.70;22.60
262;DHT22;114;48.260;10.988;2023-04-01T15:11:12;10.00;17.00
262;DHT22;114;48.260;10.988;2023-04-01T15:17:29;10.00;14.30
262;DHT22;114;48.260;10.988;2023-04-01T15:34:01;10.10;12.70
262;DHT22;114;48.260;10.988;2023-04-01T15:36:45;10.20;13.50
262;DHT22;114;48.260;10.988;2023-04-01T15:42:31;10.30;12.70
262;DHT22;114;48.260;10.988;2023-04-01T15:45:16;10.00;9.20
262;DHT22;114;48.260;10.988;2023-04-01T15:47:59;10.00;9.60
262;DHT22;114;48.260;10.988;2023-04-01T15:59:18;10.10;6.20
262;DHT22;114;48.260;10.988;2023-04-01T16:19:00;9.80;11.30
262;DHT22;114;48.260;10.988;2023-04-01T16:21:36;9.60;11.70
262;DHT22;114;48.260;10.988;2023-04-01T16:27:18;9.40;12.30
262;DHT22;114;48.260;10.988;2023-04-01T16:29:53;9.40;12.90
262;DHT22;114;48.260;10.988;2023-04-01T16:37:54;9.20;13.50
262;DHT22;114;48.260;10.988;2023-04-01T16:40:58;9.20;14.40
262;DHT22;114;48.260;10.988;2023-04-01T16:54:58;9.10;15.00
262;DHT22;114;48.260;10.988;2023-04-01T16:57:35;9.10;15.60
262;DHT22;114;48.260;10.988;2023-04-01T17:03:13;9.00;14.40
262;DHT22;114;48.260;10.988;2023-04-01T17:09:18;9.00;11.40
262;DHT22;114;48.260;10.988;2023-04-01T17:23:09;8.90;9.80
262;DHT22;114;48.260;10.988;2023-04-01T17:32:13;8.80;9.10
262;DHT22;114;48.260;10.988;2023-04-01T17:35:14;8.80;10.10
262;DHT22;114;48.260;10.988;2023-04-01T17:54:04;8.70;12.40
262;DHT22;114;48.260;10.988;2023-04-01T18:00:14;8.70;14.30
262;DHT22;114;48.260;10.988;2023-04-01T18:06:03;8.70;13.80
262;DHT22;114;48.260;10.988;2023-04-01T18:17:01;8.60;15.20
262;DHT22;114;48.260;10.988;2023-04-01T18:25:47;8.60;15.80
262;DHT22;114;48.260;10.988;2023-04-01T18:33:45;8.60;15.20
262;DHT22;114;48.260;10.988;2023-04-01T18:44:36;8.50;12.80
262;DHT22;114;48.260;10.988;2023-04-01T18:47:43;8.40;13.50
262;DHT22;114;48.260;10.988;2023-04-01T18:50:38;8.40;14.10
262;DHT22;114;48.260;10.988;2023-04-01T18:55:57;8.20;15.50
262;DHT22;114;48.260;10.988;2023-04-01T18:58:29;8.20;15.80
262;DHT22;114;48.260;10.988;2023-04-01T19:03:45;8.10;17.00
262;DHT22;114;48.260;10.988;2023-04-01T19:06:29;8.10;18.00
262;DHT22;114;48.260;10.988;2023-04-01T19:09:20;8.00;18.90
262;DHT22;114;48.260;10.988;2023-04-01T19:21:07;7.80;21.10
262;DHT22;114;48.260;10.988;2023-04-01T19:26:29;7.80;22.80
262;DHT22;114;48.260;10.988;2023-04-01T19:40:53;7.60;24.50
262;DHT22;114;48.260;10.988;2023-04-01T19:43:40;7.60;23.40
262;DHT22;114;48.260;10.988;2023-04-01T19:52:14;7.60;24.20
262;DHT22;114;48.260;10.988;2023-04-01T19:55:08;7.60;24.00
262;DHT22;114;48.260;10.988;2023-04-01T20:01:00;7.60;23.80
262;DHT22;114;48.260;10.988;2023-04-01T20:06:35;7.60;24.00
262;DHT22;114;48.260;10.988;2023-04-01T20:14:54;7.60;24.60
262;DHT22;114;48.260;10.988;2023-04-01T20:20:24;7.50;26.00
262;DHT22;114;48.260;10.988;2023-04-01T20:26:02;7.50;26.60
262;DHT22;114;48.260;10.988;2023-04-01T20:28:42;7.50;27.10
262;DHT22;114;48.260;10.988;2023-04-01T20:33:57;7.50;28.60
262;DHT22;114;48.260;10.988;2023-04-01T20:36:56;7.50;28.60
262;DHT22;114;48.260;10.988;2023-04-01T20:50:15;7.40;31.00
262;DHT22;114;48.260;10.988;2023-04-01T20:53:04;7.30;32.70
262;DHT22;114;48.260;10.988;2023-04-01T21:01:20;7.30;33.90
262;DHT22;114;48.260;10.988;2023-04-01T21:04:26;7.30;34.10
262;DHT22;114;48.260;10.988;2023-04-01T21:38:36;7.30;37.80
262;DHT22;114;48.260;10.988;2023-04-01T21:41:18;7.30;38.40
262;DHT22;114;48.260;10.988;2023-04-01T21:44:43;7.30;38.10
262;DHT22;114;48.260;10.988;2023-04-01T21:49:55;7.40;37.70
262;DHT22;114;48.260;10.988;2023-04-01T21:58:36;7.30;37.90
262;DHT22;114;48.260;10.988;2023-04-01T22:01:40;7.40;38.00
262;DHT22;114;48.260;10.988;2023-04-01T22:07:17;7.40;37.90
262;DHT22;114;48.260;10.988;2023-04-01T22:10:34;7.40;37.70
262;DHT22;114;48.260;10.988;2023-04-01T22:15:09;7.30;39.00
262;DHT22;114;48.260;10.988;2023-04-01T22:17:57;7.30;38.30
262;DHT22;114;48.260;10.988;2023-04-01T22:20:36;7.20;39.10
262;DHT22;114;48.260;10.988;2023-04-01T22:23:29;7.30;38.60
262;DHT22;114;48.260;10.988;2023-04-01T22:26:11;7.30;37.70
262;DHT22;114;48.260;10.988;2023-04-01T22:29:07;7.30;37.40
262;DHT22;114;48.260;10.988;2023-04-01T22:31:59;7.20;38.40
262;DHT22;114;48.260;10.988;2023-04-01T22:37:33;7.20;36.70
262;DHT22;114;48.260;10.988;2023-04-01T22:40:14;7.20;36.30
262;DHT22;114;48.260;10.988;2023-04-01T22:42:46;7.30;35.20
262;DHT22;114;48.260;10.988;2023-04-01T22:48:09;7.30;32.80
262;DHT22;114;48.260;10.988;2023-04-01T22:54:11;7.30;32.00
262;DHT22;114;48.260;10.988;2023-04-01T22:56:40;7.30;32.10
262;DHT22;114;48.260;10.988;2023-04-01T22:59:15;7.30;31.60
262;DHT22;114;48.260;10.988;2023-04-01T23:01:55;7.30;30.30
262;DHT22;114;48.260;10.988;2023-04-01T23:04:31;7.30;30.30
262;DHT22;114;48.260;10.988;2023-04-01T23:07:04;7.30;31.10
262;DHT22;114;48.260;10.988;2023-04-01T23:09:33;7.30;30.30
262;DHT22;114;48.260;10.988;2023-04-01T23:12:04;7.30;30.30
262;DHT22;114;48.260;10.988;2023-04-01T23:14:41;7.30;30.30
262;DHT22;114;48.260;10.988;2023-04-01T23:17:18;7.30;29.90
262;DHT22;114;48.260;10.988;2023-04-01T23:20:13;7.30;30.50
262;DHT22;114;48.260;10.988;2023-04-01T23:22:59;7.30;30.70
262;DHT22;114;48.260;10.988;2023-04-01T23:30:57;7.20;31.80
262;DHT22;114;48.260;10.988;2023-04-01T23:33:29;7.20;31.80
262;DHT22;114;48.260;10.988;2023-04-01T23:36:10;7.20;32.30
262;DHT22;114;48.260;10.988;2023-04-01T23:38:38;7.20;31.80
262;DHT22;114;48.260;10.988;2023-04-01T23:41:06;7.20;32.60
262;DHT22;114;48.260;10.988;2023-04-01T23:43:34;7.10;32.20
262;DHT22;114;48.260;10.988;2023-04-01T23:46:03;7.10;32.30
262;DHT22;114;48.260;10.988;2023-04-01T23:48:41;7.10;33.00
262;DHT22;114;48.260;10.988;2023-04-01T23:51:19;7.10;33.00
262;DHT22;114;48.260;10.988;2023-04-01T23:53:47;7.10;32.70
262;DHT22;114;48.260;10.988;2023-04-01T23:56:16;7.10;32.90
262;DHT22;114;48.260;10.988;2023-04-01T23:58:44;7.00;33.00
